Wednesday, April 23, 2014, 12:56 PM EDT

KEZF, Fredericksburg, Shannon Airport

Location: Fredericksburg, VA, United States Lat: 38.267
Local Time: 12:56 PM EDT (16:56 GMT) Lon: -77.45
Time Zone: US/Eastern Elev: 85 ft

Show me the last for .
Show Decoded

2014-04-23 12:35 METAR KEZF 231635Z AUTO 32010G20KT 290V360 10SM BKN060 15/00 A2984 RMK AO2
                 T01460003 =
2014-04-23 12:15 METAR KEZF 231615Z AUTO 34015G25KT 10SM SCT060 15/01 A2984 RMK AO2 T01490005 =
2014-04-23 11:55 METAR KEZF 231555Z AUTO 31013G22KT 10SM SCT055 15/00 A2984 RMK AO2 T01470002 =
2014-04-23 11:35 METAR KEZF 231535Z AUTO 33015G20KT 10SM SCT055 15/01 A2984 RMK AO2 T01490010 =
2014-04-23 11:15 METAR KEZF 231515Z AUTO 31012G19KT 10SM SCT055 15/01 A2984 RMK AO2 T01500012 =
2014-04-23 10:55 METAR KEZF 231455Z AUTO 34016G21KT 10SM SCT055 14/00 A2983 RMK AO2 T01370001 =
2014-04-23 10:35 METAR KEZF 231435Z AUTO 34012G20KT 10SM CLR 14/01 A2983 RMK AO2 T01440009 =
2014-04-23 10:15 METAR KEZF 231415Z AUTO 31016G26KT 280V360 10SM CLR 14/01 A2983 RMK AO2
                 T01430011 =
2014-04-23 09:55 METAR KEZF 231355Z AUTO 33010G22KT 290V350 10SM CLR 14/01 A2982 RMK AO2
                 T01430012 =
2014-04-23 09:35 METAR KEZF 231335Z AUTO 32014G24KT 290V350 10SM SCT060 14/00 A2982 RMK AO2
                 T01350001 =
2014-04-23 09:15 METAR KEZF 231315Z AUTO 31016G25KT 10SM SCT060 SCT080 13/00 A2981 RMK AO2
                 T01300000 =
2014-04-23 08:55 METAR KEZF 231255Z AUTO 32014G22KT 10SM CLR 13/00 A2981 RMK AO2 T01310001 =
2014-04-23 08:35 METAR KEZF 231235Z AUTO 32008G20KT 10SM CLR 13/00 A2980 RMK AO2 T01260002 =
2014-04-23 08:15 METAR KEZF 231215Z AUTO 32009G15KT 10SM CLR 12/01 A2981 RMK AO2 T01240005 =
2014-04-23 07:55 METAR KEZF 231155Z AUTO 34010G17KT 10SM CLR 12/01 A2980 RMK AO2 T01200007 10154
                 20115 =
2014-04-23 07:35 METAR KEZF 231135Z AUTO 33011G17KT 10SM CLR 12/01 A2979 RMK AO2 T01180008 =
2014-04-23 07:15 METAR KEZF 231115Z AUTO 34008G14KT 10SM CLR 12/01 A2979 RMK AO2 T01150010 =
2014-04-23 06:55 METAR KEZF 231055Z AUTO 35009G22KT 10SM CLR 12/01 A2978 RMK AO2 T01160008 =
2014-04-23 06:35 METAR KEZF 231035Z AUTO 35014G21KT 10SM CLR 12/01 A2975 RMK AO2 T01170007 =
2014-04-23 06:15 METAR KEZF 231015Z AUTO 34017G30KT 10SM CLR 12/01 A2973 RMK AO2 T01200005 =
2014-04-23 05:55 METAR KEZF 230955Z AUTO 34013G27KT 10SM CLR 12/01 A2971 RMK AO2 T01210007 =
2014-04-23 05:35 METAR KEZF 230935Z AUTO 34009G17KT 10SM CLR 12/01 A2971 RMK AO2 T01210011 =
2014-04-23 05:15 METAR KEZF 230915Z AUTO 33007G14KT 10SM CLR 12/02 A2971 RMK AO2 T01190020 =
2014-04-23 04:55 METAR KEZF 230855Z AUTO 33007KT 10SM CLR 12/03 A2971 RMK AO2 T01200025 =
2014-04-23 04:35 METAR KEZF 230835Z AUTO 33009G14KT 10SM CLR 12/03 A2971 RMK AO2 T01220028 =
2014-04-23 04:15 METAR KEZF 230815Z AUTO 33004KT 10SM CLR 12/04 A2971 RMK AO2 T01230035 =
2014-04-23 03:55 METAR KEZF 230755Z AUTO 34009G14KT 10SM CLR 13/04 A2971 RMK AO2 T01280036 =
2014-04-23 03:35 METAR KEZF 230735Z AUTO 34007G15KT 10SM CLR 13/04 A2971 RMK AO2 T01300041 =
2014-04-23 03:15 METAR KEZF 230715Z AUTO 33013G19KT 10SM CLR 14/05 A2970 RMK AO2 T01350049 =
2014-04-23 02:50 METAR KEZF 230650Z AUTO 35010G15KT 10SM CLR 14/05 A2970 RMK AO2 T01410054 =
2014-04-23 02:35 METAR KEZF 230635Z AUTO 36012G18KT 10SM CLR 15/06 A2969 RMK AO2 T01450058 =
2014-04-23 02:15 METAR KEZF 230615Z AUTO 35015G19KT 10SM CLR 15/06 A2968 RMK AO2 T01480063 =
2014-04-23 01:55 METAR KEZF 230555Z AUTO 35009G19KT 10SM CLR 16/08 A2968 RMK AO2 T01550078 10225
                 20155 402570100 =
2014-04-23 01:35 METAR KEZF 230535Z AUTO 35010G15KT 310V020 10SM CLR 16/09 A2968 RMK AO2
                 T01570092 =
2014-04-23 01:15 METAR KEZF 230515Z AUTO 35011G15KT 10SM CLR 16/09 A2968 RMK AO2 T01600094 =
2014-04-23 00:55 METAR KEZF 230455Z AUTO 35007KT 10SM CLR 16/10 A2968 RMK AO2 T01630099 =
2014-04-23 00:35 METAR KEZF 230435Z AUTO 36007KT 10SM SCT095 17/10 A2966 RMK AO2 T01650103 =
2014-04-23 00:15 METAR KEZF 230415Z AUTO 36011G17KT 10SM SCT095 17/11 A2966 RMK AO2 T01700109 =
2014-04-22 23:55 METAR KEZF 230355Z AUTO 34008KT 10SM CLR 17/11 A2965 RMK AO2 T01730111 =
2014-04-22 23:35 METAR KEZF 230335Z AUTO 36008KT 10SM SCT080 18/12 A2964 RMK AO2 T01760116 =
2014-04-22 23:15 METAR KEZF 230315Z AUTO 35009KT 10SM SCT080 17/13 A2964 RMK AO2 T01700128 =
2014-04-22 22:55 METAR KEZF 230255Z AUTO 00000KT 10SM CLR 17/12 A2962 RMK AO2 T01670121 =
2014-04-22 22:35 METAR KEZF 230235Z AUTO 00000KT 10SM CLR 17/12 A2963 RMK AO2 T01710119 =
2014-04-22 22:15 METAR KEZF 230215Z AUTO 00000KT 10SM CLR 17/13 A2963 RMK AO2 T01670125 =
2014-04-22 21:55 METAR KEZF 230155Z AUTO 00000KT 10SM CLR 17/12 A2962 RMK AO2 T01680123 =
2014-04-22 21:35 METAR KEZF 230135Z AUTO 00000KT 10SM CLR 17/12 A2961 RMK AO2 T01680119 =
2014-04-22 21:15 METAR KEZF 230115Z AUTO 00000KT 10SM CLR 18/12 A2961 RMK AO2 T01820124 =
2014-04-22 20:55 METAR KEZF 230055Z AUTO 00000KT 10SM CLR 20/13 A2961 RMK AO2 T02000127 =
2014-04-22 20:35 METAR KEZF 230035Z AUTO 07003KT 10SM CLR 21/12 A2960 RMK AO2 T02060120 =
2014-04-22 20:15 METAR KEZF 230015Z AUTO 34003KT 10SM SCT120 21/12 A2960 RMK AO2 T02130120 =
2014-04-22 19:55 METAR KEZF 222355Z AUTO 35007KT 10SM SCT070 23/11 A2959 RMK AO2 T02260114 10256
                 20225 =
2014-04-22 19:35 METAR KEZF 222335Z AUTO 26004KT 10SM CLR 24/11 A2958 RMK AO2 T02390106 =
2014-04-22 19:15 METAR KEZF 222315Z AUTO 24003KT 10SM SCT070 SCT090 SCT110 24/11 A2958 RMK AO2
                 T02430108 =
2014-04-22 18:55 METAR KEZF 222255Z AUTO 25003KT 10SM BKN070 BKN080 25/11 A2958 RMK AO2 T02450108
                 =
2014-04-22 18:35 METAR KEZF 222235Z AUTO 25006KT 10SM CLR 25/11 A2958 RMK AO2 T02450106 =
2014-04-22 18:15 METAR KEZF 222215Z AUTO 25004KT 10SM SCT110 25/11 A2958 RMK AO2 T02460106 =
2014-04-22 17:55 METAR KEZF 222155Z AUTO 28005KT 10SM SCT080 SCT110 25/11 A2959 RMK AO2 =
2014-04-22 17:35 METAR KEZF 222135Z AUTO 26003KT 10SM BKN080 BKN100 24/11 A2959 RMK AO2 =
2014-04-22 17:15 METAR KEZF 222115Z AUTO 27005KT 10SM BKN080 BKN110 24/10 A2959 RMK AO2 =
2014-04-22 16:55 METAR KEZF 222055Z AUTO 27006KT 10SM SCT065 SCT080 SCT110 25/10 A2959 RMK AO2 =
2014-04-22 16:35 METAR KEZF 222035Z AUTO 28008KT 10SM SCT065 SCT080 25/11 A2960 RMK AO2 =
2014-04-22 16:15 METAR KEZF 222015Z AUTO 22006G09KT 10SM CLR 24/11 A2960 RMK AO2 =
2014-04-22 15:55 METAR KEZF 221955Z AUTO 24008G15KT 10SM CLR 24/11 A2961 RMK AO2 =
2014-04-22 15:35 METAR KEZF 221935Z AUTO 22006KT 10SM CLR 24/11 A2962 RMK AO2 =
2014-04-22 15:15 METAR KEZF 221915Z AUTO 22009KT 10SM -RA CLR 23/12 A2963 RMK AO2 =
2014-04-22 14:55 METAR KEZF 221855Z AUTO 23008KT 10SM -RA SCT080 SCT090 23/11 A2964 RMK AO2 =
2014-04-22 14:35 METAR KEZF 221835Z AUTO 24011G14KT 10SM SCT080 SCT090 24/11 A2965 RMK AO2 =
2014-04-22 14:15 METAR KEZF 221815Z AUTO 25008G16KT 10SM -RA SCT035 SCT065 SCT075 23/12 A2966 RMK
                 AO2 =
2014-04-22 13:55 METAR KEZF 221755Z AUTO 30012G17KT 10SM -RA SCT070 SCT075 SCT100 24/09 A2965 RMK
                 AO2 =
2014-04-22 13:35 METAR KEZF 221735Z AUTO 26007KT 10SM CLR 26/08 A2965 RMK AO2 =
2014-04-22 13:16 METAR KEZF 221716Z AUTO 24006KT 10SM CLR 26/08 A2965 RMK AO2 =

Support USWX by starting your Amazon purchase here.